sensor_id;sensor_type;location;lat;lon;timestamp;P1;durP1;ratioP1;P2;durP2;ratioP2
29814;SDS011;16708;50.426;7.664;2023-04-29T00:00:19;3.40;;;2.20;;
29814;SDS011;16708;50.426;7.664;2023-04-29T00:05:11;3.90;;;2.20;;
29814;SDS011;16708;50.426;7.664;2023-04-29T00:10:06;3.40;;;2.20;;
29814;SDS011;16708;50.426;7.664;2023-04-29T00:15:01;3.40;;;2.30;;
29814;SDS011;16708;50.426;7.664;2023-04-29T00:19:54;4.80;;;2.50;;
29814;SDS011;16708;50.426;7.664;2023-04-29T00:24:48;3.70;;;2.90;;
29814;SDS011;16708;50.426;7.664;2023-04-29T00:29:44;5.00;;;3.60;;
29814;SDS011;16708;50.426;7.664;2023-04-29T00:34:35;5.80;;;3.40;;
29814;SDS011;16708;50.426;7.664;2023-04-29T00:39:30;6.10;;;3.80;;
29814;SDS011;16708;50.426;7.664;2023-04-29T00:44:22;6.00;;;3.70;;
29814;SDS011;16708;50.426;7.664;2023-04-29T00:49:16;5.70;;;3.70;;
29814;SDS011;16708;50.426;7.664;2023-04-29T00:54:09;7.00;;;3.80;;
29814;SDS011;16708;50.426;7.664;2023-04-29T00:59:03;9.00;;;5.10;;
29814;SDS011;16708;50.426;7.664;2023-04-29T01:03:57;7.80;;;5.40;;
29814;SDS011;16708;50.426;7.664;2023-04-29T01:08:52;9.30;;;6.40;;
29814;SDS011;16708;50.426;7.664;2023-04-29T01:13:45;10.70;;;7.20;;
29814;SDS011;16708;50.426;7.664;2023-04-29T01:18:39;13.00;;;8.70;;
29814;SDS011;16708;50.426;7.664;2023-04-29T01:23:31;16.20;;;9.60;;
29814;SDS011;16708;50.426;7.664;2023-04-29T01:28:25;16.50;;;9.60;;
29814;SDS011;16708;50.426;7.664;2023-04-29T01:33:20;15.50;;;9.60;;
29814;SDS011;16708;50.426;7.664;2023-04-29T01:43:08;14.70;;;9.70;;
29814;SDS011;16708;50.426;7.664;2023-04-29T01:48:03;15.70;;;9.90;;
29814;SDS011;16708;50.426;7.664;2023-04-29T01:52:57;15.80;;;9.80;;
29814;SDS011;16708;50.426;7.664;2023-04-29T01:57:51;16.90;;;10.30;;
29814;SDS011;16708;50.426;7.664;2023-04-29T02:02:45;16.80;;;10.40;;
29814;SDS011;16708;50.426;7.664;2023-04-29T02:07:38;18.30;;;11.30;;
29814;SDS011;16708;50.426;7.664;2023-04-29T02:12:31;20.00;;;11.70;;
29814;SDS011;16708;50.426;7.664;2023-04-29T02:17:26;17.90;;;10.20;;
29814;SDS011;16708;50.426;7.664;2023-04-29T02:22:20;19.70;;;11.40;;
29814;SDS011;16708;50.426;7.664;2023-04-29T02:27:14;19.40;;;11.10;;
29814;SDS011;16708;50.426;7.664;2023-04-29T02:32:08;20.90;;;12.00;;
29814;SDS011;16708;50.426;7.664;2023-04-29T02:37:02;18.80;;;10.80;;
29814;SDS011;16708;50.426;7.664;2023-04-29T02:41:58;19.60;;;11.20;;
29814;SDS011;16708;50.426;7.664;2023-04-29T02:46:52;22.60;;;12.40;;
29814;SDS011;16708;50.426;7.664;2023-04-29T02:51:46;22.90;;;12.40;;
29814;SDS011;16708;50.426;7.664;2023-04-29T02:56:40;20.70;;;11.80;;
29814;SDS011;16708;50.426;7.664;2023-04-29T03:01:34;22.50;;;12.10;;
29814;SDS011;16708;50.426;7.664;2023-04-29T03:06:29;18.90;;;10.50;;
29814;SDS011;16708;50.426;7.664;2023-04-29T03:11:23;17.10;;;9.30;;
29814;SDS011;16708;50.426;7.664;2023-04-29T03:16:18;17.80;;;9.30;;
29814;SDS011;16708;50.426;7.664;2023-04-29T03:21:12;16.90;;;8.30;;
29814;SDS011;16708;50.426;7.664;2023-04-29T03:26:06;13.80;;;8.00;;
29814;SDS011;16708;50.426;7.664;2023-04-29T03:31:01;13.90;;;7.10;;
29814;SDS011;16708;50.426;7.664;2023-04-29T03:35:55;14.90;;;8.10;;
29814;SDS011;16708;50.426;7.664;2023-04-29T03:40:48;12.50;;;6.90;;
29814;SDS011;16708;50.426;7.664;2023-04-29T03:45:42;13.10;;;7.50;;
29814;SDS011;16708;50.426;7.664;2023-04-29T03:50:36;13.80;;;7.40;;
29814;SDS011;16708;50.426;7.664;2023-04-29T03:55:30;13.50;;;7.70;;
29814;SDS011;16708;50.426;7.664;2023-04-29T04:00:24;13.30;;;7.10;;
29814;SDS011;16708;50.426;7.664;2023-04-29T04:05:19;11.90;;;6.40;;
29814;SDS011;16708;50.426;7.664;2023-04-29T04:10:11;11.60;;;5.80;;
29814;SDS011;16708;50.426;7.664;2023-04-29T04:15:05;9.10;;;5.40;;
29814;SDS011;16708;50.426;7.664;2023-04-29T04:19:59;10.00;;;5.60;;
29814;SDS011;16708;50.426;7.664;2023-04-29T04:24:53;11.30;;;5.60;;
29814;SDS011;16708;50.426;7.664;2023-04-29T04:29:48;9.40;;;5.40;;
29814;SDS011;16708;50.426;7.664;2023-04-29T04:34:41;10.30;;;5.20;;
29814;SDS011;16708;50.426;7.664;2023-04-29T04:39:35;9.90;;;5.20;;
29814;SDS011;16708;50.426;7.664;2023-04-29T04:44:30;12.20;;;5.60;;
29814;SDS011;16708;50.426;7.664;2023-04-29T04:49:24;13.10;;;6.80;;
29814;SDS011;16708;50.426;7.664;2023-04-29T04:54:18;13.50;;;7.20;;
29814;SDS011;16708;50.426;7.664;2023-04-29T04:59:14;15.70;;;7.50;;
29814;SDS011;16708;50.426;7.664;2023-04-29T05:04:08;15.60;;;7.40;;
29814;SDS011;16708;50.426;7.664;2023-04-29T05:09:02;13.60;;;7.50;;
29814;SDS011;16708;50.426;7.664;2023-04-29T05:13:56;15.50;;;8.10;;
29814;SDS011;16708;50.426;7.664;2023-04-29T05:18:51;16.70;;;8.80;;
29814;SDS011;16708;50.426;7.664;2023-04-29T05:23:45;21.00;;;9.90;;
29814;SDS011;16708;50.426;7.664;2023-04-29T05:28:39;19.20;;;10.20;;
29814;SDS011;16708;50.426;7.664;2023-04-29T05:33:33;22.60;;;11.00;;
29814;SDS011;16708;50.426;7.664;2023-04-29T05:38:27;25.40;;;12.60;;
29814;SDS011;16708;50.426;7.664;2023-04-29T05:43:22;26.60;;;13.00;;
29814;SDS011;16708;50.426;7.664;2023-04-29T05:48:16;26.50;;;13.10;;
29814;SDS011;16708;50.426;7.664;2023-04-29T05:53:10;25.10;;;12.30;;
29814;SDS011;16708;50.426;7.664;2023-04-29T05:58:04;27.60;;;13.80;;
29814;SDS011;16708;50.426;7.664;2023-04-29T06:02:58;28.70;;;13.20;;
29814;SDS011;16708;50.426;7.664;2023-04-29T06:07:52;30.40;;;14.70;;
29814;SDS011;16708;50.426;7.664;2023-04-29T06:12:47;29.20;;;13.90;;
29814;SDS011;16708;50.426;7.664;2023-04-29T06:17:38;31.00;;;14.10;;
29814;SDS011;16708;50.426;7.664;2023-04-29T06:22:33;30.70;;;14.30;;
29814;SDS011;16708;50.426;7.664;2023-04-29T06:27:27;31.00;;;14.60;;
29814;SDS011;16708;50.426;7.664;2023-04-29T06:32:21;31.10;;;14.80;;
29814;SDS011;16708;50.426;7.664;2023-04-29T06:37:15;28.80;;;14.00;;
29814;SDS011;16708;50.426;7.664;2023-04-29T06:42:10;30.00;;;14.00;;
29814;SDS011;16708;50.426;7.664;2023-04-29T06:47:03;28.20;;;13.10;;
29814;SDS011;16708;50.426;7.664;2023-04-29T06:51:57;26.30;;;12.70;;
29814;SDS011;16708;50.426;7.664;2023-04-29T06:56:52;24.40;;;12.30;;
29814;SDS011;16708;50.426;7.664;2023-04-29T07:01:46;24.30;;;11.50;;
29814;SDS011;16708;50.426;7.664;2023-04-29T07:06:40;21.00;;;10.00;;
29814;SDS011;16708;50.426;7.664;2023-04-29T07:11:35;18.90;;;9.00;;
29814;SDS011;16708;50.426;7.664;2023-04-29T07:16:29;16.40;;;8.70;;
29814;SDS011;16708;50.426;7.664;2023-04-29T07:21:24;18.20;;;9.00;;
29814;SDS011;16708;50.426;7.664;2023-04-29T07:26:18;17.20;;;8.80;;
29814;SDS011;16708;50.426;7.664;2023-04-29T07:31:13;19.40;;;9.40;;
29814;SDS011;16708;50.426;7.664;2023-04-29T07:36:07;19.60;;;9.70;;
29814;SDS011;16708;50.426;7.664;2023-04-29T07:41:01;21.20;;;10.80;;
29814;SDS011;16708;50.426;7.664;2023-04-29T07:45:55;24.00;;;11.50;;
29814;SDS011;16708;50.426;7.664;2023-04-29T07:50:50;20.70;;;10.80;;
29814;SDS011;16708;50.426;7.664;2023-04-29T07:55:43;19.90;;;10.80;;
29814;SDS011;16708;50.426;7.664;2023-04-29T08:00:36;20.90;;;10.50;;
29814;SDS011;16708;50.426;7.664;2023-04-29T08:05:30;17.50;;;9.10;;
29814;SDS011;16708;50.426;7.664;2023-04-29T08:10:25;13.50;;;7.60;;
29814;SDS011;16708;50.426;7.664;2023-04-29T08:15:18;14.40;;;7.70;;
29814;SDS011;16708;50.426;7.664;2023-04-29T08:20:12;13.10;;;7.30;;
29814;SDS011;16708;50.426;7.664;2023-04-29T08:25:07;13.90;;;7.50;;
29814;SDS011;16708;50.426;7.664;2023-04-29T08:30:01;12.90;;;7.10;;
29814;SDS011;16708;50.426;7.664;2023-04-29T08:34:55;10.50;;;5.60;;
29814;SDS011;16708;50.426;7.664;2023-04-29T08:39:51;9.20;;;5.30;;
29814;SDS011;16708;50.426;7.664;2023-04-29T08:44:43;7.60;;;4.30;;
29814;SDS011;16708;50.426;7.664;2023-04-29T08:49:37;5.90;;;3.50;;
29814;SDS011;16708;50.426;7.664;2023-04-29T08:54:31;6.80;;;3.50;;
29814;SDS011;16708;50.426;7.664;2023-04-29T08:59:25;6.80;;;3.60;;
29814;SDS011;16708;50.426;7.664;2023-04-29T09:04:19;6.00;;;3.40;;
29814;SDS011;16708;50.426;7.664;2023-04-29T09:09:13;5.40;;;3.40;;
29814;SDS011;16708;50.426;7.664;2023-04-29T09:14:07;5.80;;;3.00;;
29814;SDS011;16708;50.426;7.664;2023-04-29T09:19:02;4.50;;;2.80;;
29814;SDS011;16708;50.426;7.664;2023-04-29T09:28:53;5.60;;;3.60;;
29814;SDS011;16708;50.426;7.664;2023-04-29T09:38:38;4.80;;;2.90;;
29814;SDS011;16708;50.426;7.664;2023-04-29T09:43:30;5.30;;;3.40;;
29814;SDS011;16708;50.426;7.664;2023-04-29T09:58:10;5.70;;;3.40;;
29814;SDS011;16708;50.426;7.664;2023-04-29T10:03:05;5.70;;;3.60;;
29814;SDS011;16708;50.426;7.664;2023-04-29T10:07:59;6.60;;;4.00;;
29814;SDS011;16708;50.426;7.664;2023-04-29T10:12:53;8.30;;;4.00;;
29814;SDS011;16708;50.426;7.664;2023-04-29T10:17:47;6.30;;;3.20;;
29814;SDS011;16708;50.426;7.664;2023-04-29T10:22:41;5.50;;;3.50;;
29814;SDS011;16708;50.426;7.664;2023-04-29T10:27:35;6.90;;;4.40;;
29814;SDS011;16708;50.426;7.664;2023-04-29T10:32:28;8.80;;;4.90;;
29814;SDS011;16708;50.426;7.664;2023-04-29T10:37:22;9.00;;;5.00;;
29814;SDS011;16708;50.426;7.664;2023-04-29T10:47:09;7.40;;;5.00;;
29814;SDS011;16708;50.426;7.664;2023-04-29T10:52:04;9.50;;;5.20;;
29814;SDS011;16708;50.426;7.664;2023-04-29T10:56:58;6.80;;;4.70;;
29814;SDS011;16708;50.426;7.664;2023-04-29T11:06:47;8.50;;;5.90;;
29814;SDS011;16708;50.426;7.664;2023-04-29T11:11:39;8.20;;;5.90;;
29814;SDS011;16708;50.426;7.664;2023-04-29T11:16:32;9.90;;;6.40;;
29814;SDS011;16708;50.426;7.664;2023-04-29T11:21:25;13.40;;;7.50;;
29814;SDS011;16708;50.426;7.664;2023-04-29T11:26:19;11.50;;;7.00;;
29814;SDS011;16708;50.426;7.664;2023-04-29T11:36:08;8.90;;;6.40;;
29814;SDS011;16708;50.426;7.664;2023-04-29T11:41:02;11.10;;;6.60;;
29814;SDS011;16708;50.426;7.664;2023-04-29T11:45:57;10.90;;;6.70;;
29814;SDS011;16708;50.426;7.664;2023-04-29T11:50:51;10.80;;;7.10;;
29814;SDS011;16708;50.426;7.664;2023-04-29T11:55:44;12.20;;;7.40;;
29814;SDS011;16708;50.426;7.664;2023-04-29T12:05:32;15.00;;;9.70;;
29814;SDS011;16708;50.426;7.664;2023-04-29T12:10:26;18.30;;;11.90;;
29814;SDS011;16708;50.426;7.664;2023-04-29T12:15:19;13.40;;;8.40;;
29814;SDS011;16708;50.426;7.664;2023-04-29T12:20:13;14.00;;;8.50;;
29814;SDS011;16708;50.426;7.664;2023-04-29T12:30:01;17.40;;;10.10;;
29814;SDS011;16708;50.426;7.664;2023-04-29T12:34:55;25.30;;;15.20;;
29814;SDS011;16708;50.426;7.664;2023-04-29T12:39:49;28.00;;;16.70;;
29814;SDS011;16708;50.426;7.664;2023-04-29T12:44:43;27.20;;;16.80;;
29814;SDS011;16708;50.426;7.664;2023-04-29T12:49:37;35.40;;;19.80;;
29814;SDS011;16708;50.426;7.664;2023-04-29T12:54:31;36.50;;;20.10;;
29814;SDS011;16708;50.426;7.664;2023-04-29T12:59:25;32.10;;;18.60;;
29814;SDS011;16708;50.426;7.664;2023-04-29T13:04:19;36.30;;;20.30;;
29814;SDS011;16708;50.426;7.664;2023-04-29T13:09:13;35.10;;;19.20;;
29814;SDS011;16708;50.426;7.664;2023-04-29T13:14:08;35.60;;;19.10;;
29814;SDS011;16708;50.426;7.664;2023-04-29T13:19:02;36.60;;;19.00;;
29814;SDS011;16708;50.426;7.664;2023-04-29T13:23:56;34.50;;;18.50;;
29814;SDS011;16708;50.426;7.664;2023-04-29T13:28:51;37.90;;;19.10;;
29814;SDS011;16708;50.426;7.664;2023-04-29T13:33:45;28.90;;;16.80;;
29814;SDS011;16708;50.426;7.664;2023-04-29T13:38:40;32.60;;;18.00;;
29814;SDS011;16708;50.426;7.664;2023-04-29T13:43:34;32.80;;;18.40;;
29814;SDS011;16708;50.426;7.664;2023-04-29T13:48:26;31.20;;;17.10;;
29814;SDS011;16708;50.426;7.664;2023-04-29T13:53:21;31.50;;;17.60;;
29814;SDS011;16708;50.426;7.664;2023-04-29T13:58:13;31.50;;;17.90;;
29814;SDS011;16708;50.426;7.664;2023-04-29T14:03:07;28.40;;;16.90;;
29814;SDS011;16708;50.426;7.664;2023-04-29T14:08:02;29.40;;;15.00;;
29814;SDS011;16708;50.426;7.664;2023-04-29T14:12:56;25.10;;;14.40;;
29814;SDS011;16708;50.426;7.664;2023-04-29T14:17:51;23.00;;;14.20;;
29814;SDS011;16708;50.426;7.664;2023-04-29T14:22:42;25.70;;;14.30;;
29814;SDS011;16708;50.426;7.664;2023-04-29T14:27:36;26.10;;;15.10;;
29814;SDS011;16708;50.426;7.664;2023-04-29T14:32:30;25.10;;;14.60;;
29814;SDS011;16708;50.426;7.664;2023-04-29T14:37:24;26.70;;;16.10;;
29814;SDS011;16708;50.426;7.664;2023-04-29T14:42:18;31.50;;;17.90;;
29814;SDS011;16708;50.426;7.664;2023-04-29T14:47:13;30.50;;;17.50;;
29814;SDS011;16708;50.426;7.664;2023-04-29T14:52:07;28.30;;;16.40;;
29814;SDS011;16708;50.426;7.664;2023-04-29T14:57:02;27.30;;;15.80;;
29814;SDS011;16708;50.426;7.664;2023-04-29T15:01:56;26.30;;;14.80;;
29814;SDS011;16708;50.426;7.664;2023-04-29T15:06:50;23.70;;;13.70;;
29814;SDS011;16708;50.426;7.664;2023-04-29T15:11:46;25.60;;;14.50;;
29814;SDS011;16708;50.426;7.664;2023-04-29T15:16:40;24.10;;;14.20;;
29814;SDS011;16708;50.426;7.664;2023-04-29T15:21:34;23.90;;;13.50;;
29814;SDS011;16708;50.426;7.664;2023-04-29T15:26:28;27.20;;;14.70;;
29814;SDS011;16708;50.426;7.664;2023-04-29T15:31:22;25.50;;;15.20;;
29814;SDS011;16708;50.426;7.664;2023-04-29T15:36:17;23.70;;;14.50;;
29814;SDS011;16708;50.426;7.664;2023-04-29T15:41:11;26.50;;;14.80;;
29814;SDS011;16708;50.426;7.664;2023-04-29T15:46:06;24.30;;;14.40;;
29814;SDS011;16708;50.426;7.664;2023-04-29T15:51:00;25.40;;;14.70;;
29814;SDS011;16708;50.426;7.664;2023-04-29T15:55:55;22.10;;;13.10;;
29814;SDS011;16708;50.426;7.664;2023-04-29T16:00:49;25.50;;;13.80;;
29814;SDS011;16708;50.426;7.664;2023-04-29T16:05:43;23.90;;;14.00;;
29814;SDS011;16708;50.426;7.664;2023-04-29T16:10:37;21.10;;;12.10;;
29814;SDS011;16708;50.426;7.664;2023-04-29T16:15:31;24.40;;;13.30;;
29814;SDS011;16708;50.426;7.664;2023-04-29T16:20:25;21.80;;;12.70;;
29814;SDS011;16708;50.426;7.664;2023-04-29T16:25:19;22.30;;;13.40;;
29814;SDS011;16708;50.426;7.664;2023-04-29T16:30:14;25.80;;;13.60;;
29814;SDS011;16708;50.426;7.664;2023-04-29T16:35:08;20.40;;;12.30;;
29814;SDS011;16708;50.426;7.664;2023-04-29T16:40:02;22.00;;;12.40;;
29814;SDS011;16708;50.426;7.664;2023-04-29T16:44:57;25.40;;;13.20;;
29814;SDS011;16708;50.426;7.664;2023-04-29T16:49:49;24.40;;;12.30;;
29814;SDS011;16708;50.426;7.664;2023-04-29T16:54:43;22.50;;;12.50;;
29814;SDS011;16708;50.426;7.664;2023-04-29T16:59:38;31.00;;;16.70;;
29814;SDS011;16708;50.426;7.664;2023-04-29T17:04:32;34.60;;;17.70;;
29814;SDS011;16708;50.426;7.664;2023-04-29T17:09:26;37.60;;;18.50;;
29814;SDS011;16708;50.426;7.664;2023-04-29T17:14:20;36.50;;;18.50;;
29814;SDS011;16708;50.426;7.664;2023-04-29T17:19:14;38.80;;;19.90;;
29814;SDS011;16708;50.426;7.664;2023-04-29T17:24:08;37.40;;;18.10;;
29814;SDS011;16708;50.426;7.664;2023-04-29T17:29:03;41.00;;;19.50;;
29814;SDS011;16708;50.426;7.664;2023-04-29T17:33:58;40.30;;;19.70;;
29814;SDS011;16708;50.426;7.664;2023-04-29T17:38:52;37.40;;;18.10;;
29814;SDS011;16708;50.426;7.664;2023-04-29T17:43:45;31.60;;;15.50;;
29814;SDS011;16708;50.426;7.664;2023-04-29T17:48:39;29.10;;;15.50;;
29814;SDS011;16708;50.426;7.664;2023-04-29T17:53:33;31.40;;;14.80;;
29814;SDS011;16708;50.426;7.664;2023-04-29T17:58:27;30.50;;;14.60;;
29814;SDS011;16708;50.426;7.664;2023-04-29T18:03:21;30.60;;;14.80;;
29814;SDS011;16708;50.426;7.664;2023-04-29T18:08:14;31.60;;;15.40;;
29814;SDS011;16708;50.426;7.664;2023-04-29T18:13:08;34.30;;;15.60;;
29814;SDS011;16708;50.426;7.664;2023-04-29T18:18:03;30.80;;;15.20;;
29814;SDS011;16708;50.426;7.664;2023-04-29T18:22:57;33.00;;;15.60;;
29814;SDS011;16708;50.426;7.664;2023-04-29T18:27:51;34.80;;;16.20;;
29814;SDS011;16708;50.426;7.664;2023-04-29T18:32:45;35.70;;;16.90;;
29814;SDS011;16708;50.426;7.664;2023-04-29T18:37:39;36.50;;;19.20;;
29814;SDS011;16708;50.426;7.664;2023-04-29T18:42:33;32.40;;;16.70;;
29814;SDS011;16708;50.426;7.664;2023-04-29T18:47:28;36.30;;;17.60;;
29814;SDS011;16708;50.426;7.664;2023-04-29T18:52:22;36.80;;;17.10;;
29814;SDS011;16708;50.426;7.664;2023-04-29T18:57:16;37.10;;;18.20;;
29814;SDS011;16708;50.426;7.664;2023-04-29T19:02:11;40.30;;;19.10;;
29814;SDS011;16708;50.426;7.664;2023-04-29T19:07:05;37.40;;;18.90;;
29814;SDS011;16708;50.426;7.664;2023-04-29T19:11:59;40.60;;;18.50;;
29814;SDS011;16708;50.426;7.664;2023-04-29T19:16:54;40.50;;;19.90;;
29814;SDS011;16708;50.426;7.664;2023-04-29T19:21:48;45.50;;;21.50;;
29814;SDS011;16708;50.426;7.664;2023-04-29T19:26:42;40.60;;;20.50;;
29814;SDS011;16708;50.426;7.664;2023-04-29T19:31:36;40.50;;;19.40;;
29814;SDS011;16708;50.426;7.664;2023-04-29T19:36:31;42.70;;;20.80;;
29814;SDS011;16708;50.426;7.664;2023-04-29T19:41:25;40.10;;;20.00;;
29814;SDS011;16708;50.426;7.664;2023-04-29T19:46:18;40.80;;;20.30;;
29814;SDS011;16708;50.426;7.664;2023-04-29T19:51:13;44.20;;;21.10;;
29814;SDS011;16708;50.426;7.664;2023-04-29T19:56:07;43.30;;;21.00;;
29814;SDS011;16708;50.426;7.664;2023-04-29T20:01:01;46.40;;;21.20;;
29814;SDS011;16708;50.426;7.664;2023-04-29T20:05:55;45.50;;;21.50;;
29814;SDS011;16708;50.426;7.664;2023-04-29T20:10:50;46.70;;;21.80;;
29814;SDS011;16708;50.426;7.664;2023-04-29T20:15:44;45.30;;;21.60;;
29814;SDS011;16708;50.426;7.664;2023-04-29T20:20:39;50.20;;;23.00;;
29814;SDS011;16708;50.426;7.664;2023-04-29T20:25:33;49.30;;;22.80;;
29814;SDS011;16708;50.426;7.664;2023-04-29T20:30:27;46.30;;;22.60;;
29814;SDS011;16708;50.426;7.664;2023-04-29T20:35:20;49.00;;;22.80;;
29814;SDS011;16708;50.426;7.664;2023-04-29T20:40:15;53.20;;;24.20;;
29814;SDS011;16708;50.426;7.664;2023-04-29T20:45:09;53.40;;;24.40;;
29814;SDS011;16708;50.426;7.664;2023-04-29T20:50:03;55.20;;;25.10;;
29814;SDS011;16708;50.426;7.664;2023-04-29T20:54:58;57.30;;;26.60;;
29814;SDS011;16708;50.426;7.664;2023-04-29T20:59:51;53.30;;;25.30;;
29814;SDS011;16708;50.426;7.664;2023-04-29T21:04:45;56.70;;;26.30;;
29814;SDS011;16708;50.426;7.664;2023-04-29T21:09:40;55.40;;;25.40;;
29814;SDS011;16708;50.426;7.664;2023-04-29T21:14:33;56.80;;;24.10;;
29814;SDS011;16708;50.426;7.664;2023-04-29T21:19:28;54.60;;;25.20;;
29814;SDS011;16708;50.426;7.664;2023-04-29T21:24:22;51.30;;;23.50;;
29814;SDS011;16708;50.426;7.664;2023-04-29T21:29:16;50.30;;;23.10;;
29814;SDS011;16708;50.426;7.664;2023-04-29T21:34:10;53.20;;;24.80;;
29814;SDS011;16708;50.426;7.664;2023-04-29T21:39:05;53.60;;;24.90;;
29814;SDS011;16708;50.426;7.664;2023-04-29T21:43:59;56.40;;;25.10;;
29814;SDS011;16708;50.426;7.664;2023-04-29T21:48:53;58.10;;;25.50;;
29814;SDS011;16708;50.426;7.664;2023-04-29T21:53:46;55.60;;;25.80;;
29814;SDS011;16708;50.426;7.664;2023-04-29T21:58:41;53.00;;;23.80;;
29814;SDS011;16708;50.426;7.664;2023-04-29T22:03:35;49.70;;;23.40;;
29814;SDS011;16708;50.426;7.664;2023-04-29T22:08:30;49.20;;;23.70;;
29814;SDS011;16708;50.426;7.664;2023-04-29T22:13:24;44.80;;;21.90;;
29814;SDS011;16708;50.426;7.664;2023-04-29T22:18:19;47.50;;;22.10;;
29814;SDS011;16708;50.426;7.664;2023-04-29T22:23:13;53.40;;;24.60;;
29814;SDS011;16708;50.426;7.664;2023-04-29T22:28:08;48.30;;;22.70;;
29814;SDS011;16708;50.426;7.664;2023-04-29T22:33:02;44.80;;;21.40;;
29814;SDS011;16708;50.426;7.664;2023-04-29T22:37:56;46.00;;;22.20;;
29814;SDS011;16708;50.426;7.664;2023-04-29T22:42:50;55.50;;;24.00;;
29814;SDS011;16708;50.426;7.664;2023-04-29T22:47:48;47.80;;;22.70;;
29814;SDS011;16708;50.426;7.664;2023-04-29T22:52:39;55.10;;;23.90;;
29814;SDS011;16708;50.426;7.664;2023-04-29T22:57:33;56.60;;;23.60;;
29814;SDS011;16708;50.426;7.664;2023-04-29T23:02:26;49.90;;;23.10;;
29814;SDS011;16708;50.426;7.664;2023-04-29T23:07:20;48.40;;;22.00;;
29814;SDS011;16708;50.426;7.664;2023-04-29T23:12:14;48.60;;;21.10;;
29814;SDS011;16708;50.426;7.664;2023-04-29T23:17:09;38.60;;;19.50;;
29814;SDS011;16708;50.426;7.664;2023-04-29T23:22:03;39.10;;;19.10;;
29814;SDS011;16708;50.426;7.664;2023-04-29T23:26:56;42.50;;;20.10;;
29814;SDS011;16708;50.426;7.664;2023-04-29T23:31:48;35.70;;;18.40;;
29814;SDS011;16708;50.426;7.664;2023-04-29T23:36:42;49.30;;;21.50;;
29814;SDS011;16708;50.426;7.664;2023-04-29T23:41:36;43.90;;;19.80;;
29814;SDS011;16708;50.426;7.664;2023-04-29T23:46:30;37.80;;;17.90;;
29814;SDS011;16708;50.426;7.664;2023-04-29T23:51:22;32.20;;;16.10;;
29814;SDS011;16708;50.426;7.664;2023-04-29T23:56:16;32.40;;;16.90;;
